createdAt,value
2023-02-11T00:02:15.527Z,93.72
2023-02-11T00:04:42.035Z,90.00
2023-02-11T00:07:08.499Z,89.30
2023-02-11T00:09:35.015Z,92.32
2023-02-11T00:12:01.501Z,84.25
2023-02-11T00:14:28.016Z,83.20
2023-02-11T00:16:54.528Z,75.90
2023-02-11T00:19:21.013Z,72.05
2023-02-11T00:21:47.431Z,66.47
2023-02-11T00:24:13.864Z,71.07
2023-02-11T00:26:40.258Z,66.65
2023-02-11T00:29:06.701Z,64.55
2023-02-11T00:31:33.518Z,66.45
2023-02-11T00:34:00.120Z,71.50
2023-02-11T00:36:27.342Z,64.70
2023-02-11T00:38:54.380Z,62.90
2023-02-11T00:41:21.226Z,68.18
2023-02-11T00:43:47.994Z,64.72
2023-02-11T00:46:15.123Z,67.95
2023-02-11T00:48:41.781Z,62.80
2023-02-11T00:51:08.258Z,66.90
2023-02-11T00:53:35.176Z,80.35
2023-02-11T00:56:01.764Z,70.28
2023-02-11T00:58:28.627Z,75.13
2023-02-11T01:00:55.743Z,76.07
2023-02-11T01:03:22.554Z,71.20
2023-02-11T01:05:49.350Z,71.65
2023-02-11T01:08:16.120Z,74.60
2023-02-11T01:10:44.051Z,71.93
2023-02-11T01:13:10.579Z,75.10
2023-02-11T01:15:37.067Z,73.07
2023-02-11T01:18:04.486Z,73.45
2023-02-11T01:20:31.033Z,79.80
2023-02-11T01:22:57.510Z,78.60
2023-02-11T01:25:23.944Z,78.03
2023-02-11T01:27:50.414Z,80.93
2023-02-11T01:30:16.895Z,88.50
2023-02-11T01:32:43.375Z,80.45
2023-02-11T01:35:09.973Z,89.97
2023-02-11T01:37:36.468Z,83.22
2023-02-11T01:40:03.742Z,83.85
2023-02-11T01:42:30.214Z,80.45
2023-02-11T01:44:57.597Z,83.95
2023-02-11T01:47:24.092Z,84.60
2023-02-11T01:49:52.555Z,85.40
2023-02-11T01:52:20.129Z,83.05
2023-02-11T01:55:06.387Z,77.88
2023-02-11T01:57:34.667Z,73.35
2023-02-11T02:00:04.441Z,74.35
2023-02-11T02:02:44.157Z,80.60
2023-02-11T02:05:16.912Z,77.35
2023-02-11T02:07:49.554Z,74.93
2023-02-11T02:10:18.752Z,74.53
2023-02-11T02:12:45.208Z,75.03
2023-02-11T02:15:31.922Z,70.30
2023-02-11T02:17:58.929Z,67.10
2023-02-11T02:20:43.846Z,70.05
2023-02-11T02:23:16.345Z,69.75
2023-02-11T02:25:58.213Z,67.43
2023-02-11T02:31:10.298Z,66.00
2023-02-11T02:33:40.736Z,61.90
2023-02-11T02:36:26.024Z,66.90
2023-02-11T02:38:55.277Z,66.53
2023-02-11T02:41:24.688Z,66.85
2023-02-11T02:43:51.575Z,65.97
2023-02-11T02:46:20.021Z,70.82
2023-02-11T02:48:46.913Z,70.63
2023-02-11T02:51:19.165Z,68.20
2023-02-11T02:53:55.332Z,71.72
2023-02-11T02:56:21.720Z,72.55
2023-02-11T02:58:56.368Z,68.57
2023-02-11T03:01:49.186Z,67.07
2023-02-11T03:04:35.851Z,65.03
2023-02-11T03:07:21.224Z,63.47
2023-02-11T03:10:00.673Z,62.00
2023-02-11T03:12:29.083Z,63.15
2023-02-11T03:14:55.492Z,63.30
2023-02-11T03:17:23.728Z,69.22
2023-02-11T03:19:50.772Z,65.57
2023-02-11T03:22:20.120Z,62.53
2023-02-11T03:24:46.815Z,62.47
2023-02-11T03:27:20.858Z,61.45
2023-02-11T03:29:54.419Z,62.38
2023-02-11T03:32:36.629Z,64.88
2023-02-11T03:35:15.224Z,64.43
2023-02-11T03:37:47.477Z,63.00
2023-02-11T03:40:17.172Z,63.70
2023-02-11T03:42:46.160Z,66.40
2023-02-11T03:45:15.832Z,62.67
2023-02-11T03:47:46.369Z,63.50
2023-02-11T03:50:14.941Z,59.75
2023-02-11T03:52:41.507Z,60.55
2023-02-11T03:55:12.978Z,61.03
2023-02-11T03:57:39.500Z,60.40
2023-02-11T04:00:06.703Z,62.42
2023-02-11T04:02:34.299Z,58.90
2023-02-11T04:05:02.430Z,62.00
2023-02-11T04:07:29.262Z,60.97
2023-02-11T04:09:55.912Z,59.72
2023-02-11T04:12:22.368Z,63.17
2023-02-11T04:14:48.846Z,63.83
2023-02-11T04:17:15.337Z,64.72
2023-02-11T04:19:41.865Z,64.40
2023-02-11T04:22:08.477Z,63.88
2023-02-11T04:24:35.268Z,61.30
2023-02-11T04:27:01.840Z,62.88
2023-02-11T04:29:28.441Z,64.68
2023-02-11T04:31:55.481Z,63.40
2023-02-11T04:34:22.149Z,61.42
2023-02-11T04:36:48.660Z,65.53
2023-02-11T04:39:15.140Z,62.97
2023-02-11T04:41:41.681Z,62.88
2023-02-11T04:44:08.068Z,63.15
2023-02-11T04:46:35.764Z,62.50
2023-02-11T04:49:02.708Z,60.85
2023-02-11T04:51:29.270Z,58.75
2023-02-11T04:53:55.741Z,62.88
2023-02-11T04:56:22.188Z,63.10
2023-02-11T04:58:48.624Z,60.95
2023-02-11T05:01:16.176Z,61.55
2023-02-11T05:03:42.917Z,59.33
2023-02-11T05:06:09.912Z,58.22
2023-02-11T05:08:36.369Z,59.13
2023-02-11T05:11:02.821Z,59.30
2023-02-11T05:13:29.519Z,59.17
2023-02-11T05:15:56.011Z,59.20
2023-02-11T05:18:23.030Z,55.83
2023-02-11T05:20:49.441Z,61.17
2023-02-11T05:23:15.910Z,60.53
2023-02-11T05:25:42.393Z,57.22
2023-02-11T05:28:08.954Z,58.30
2023-02-11T05:30:35.602Z,59.40
2023-02-11T05:33:02.108Z,58.75
2023-02-11T05:35:28.531Z,58.05
2023-02-11T05:37:54.962Z,58.17
2023-02-11T05:40:21.524Z,59.15
2023-02-11T05:42:48.011Z,62.80
2023-02-11T05:45:14.574Z,59.60
2023-02-11T05:47:41.053Z,61.17
2023-02-11T05:50:07.579Z,61.80
2023-02-11T05:52:34.099Z,61.13
2023-02-11T05:55:00.728Z,79.47
2023-02-11T05:57:27.198Z,67.53
2023-02-11T05:59:53.697Z,70.22
2023-02-11T06:02:20.288Z,63.42
2023-02-11T06:04:46.940Z,70.53
2023-02-11T06:07:13.364Z,66.65
2023-02-11T06:09:39.832Z,74.63
2023-02-11T06:12:06.389Z,85.70
2023-02-11T06:14:33.874Z,75.15
2023-02-11T06:17:00.939Z,73.30
2023-02-11T06:19:27.841Z,66.68
2023-02-11T06:21:55.594Z,67.10
2023-02-11T06:24:44.312Z,68.93
2023-02-11T06:27:08.517Z,88.28
2023-02-11T06:29:35.005Z,93.57
2023-02-11T06:32:01.869Z,62.70
2023-02-11T06:34:28.357Z,64.40
2023-02-11T06:36:54.833Z,67.20
2023-02-11T06:39:21.297Z,62.65
2023-02-11T06:41:47.811Z,57.83
2023-02-11T06:44:14.309Z,65.15
2023-02-11T06:46:40.870Z,62.90
2023-02-11T06:49:07.318Z,59.20
2023-02-11T06:51:33.827Z,59.88
2023-02-11T06:54:00.275Z,61.17
2023-02-11T06:56:27.586Z,62.88
2023-02-11T06:58:58.179Z,55.38
2023-02-11T07:01:25.463Z,62.70
2023-02-11T07:03:52.265Z,64.32
2023-02-11T07:06:23.899Z,58.03
2023-02-11T07:08:50.595Z,56.67
2023-02-11T07:11:24.235Z,60.50
2023-02-11T07:13:51.783Z,56.03
2023-02-11T07:16:18.866Z,57.03
2023-02-11T07:18:45.884Z,58.30
2023-02-11T07:21:14.188Z,58.88
2023-02-11T07:23:41.328Z,59.10
2023-02-11T07:26:08.810Z,65.97
2023-02-11T07:28:36.046Z,64.22
2023-02-11T07:31:09.648Z,62.88
2023-02-11T07:33:36.867Z,59.20
2023-02-11T07:36:04.644Z,58.80
2023-02-11T07:38:32.174Z,59.25
2023-02-11T07:41:06.102Z,53.95
2023-02-11T07:43:33.335Z,53.08
2023-02-11T07:46:00.154Z,45.70
2023-02-11T07:48:26.589Z,43.28
2023-02-11T07:50:53.013Z,39.22
2023-02-11T07:53:19.588Z,37.70
2023-02-11T07:55:46.058Z,39.05
2023-02-11T07:58:12.500Z,34.80
2023-02-11T08:00:39.051Z,34.88
2023-02-11T08:03:07.847Z,33.72
2023-02-11T08:05:37.473Z,33.38
2023-02-11T08:08:03.982Z,30.48
2023-02-11T08:10:30.453Z,31.05
2023-02-11T08:12:56.929Z,30.67
2023-02-11T08:15:23.582Z,30.38
2023-02-11T08:17:50.003Z,33.42
2023-02-11T08:20:16.987Z,29.27
2023-02-11T08:22:43.520Z,29.48
2023-02-11T08:25:09.924Z,30.70
2023-02-11T08:27:36.423Z,31.45
2023-02-11T08:30:03.040Z,32.38
2023-02-11T08:32:29.653Z,30.70
2023-02-11T08:34:56.081Z,32.08
2023-02-11T08:37:22.874Z,33.55
2023-02-11T08:39:49.376Z,33.72
2023-02-11T08:42:15.796Z,33.05
2023-02-11T08:44:42.367Z,35.03
2023-02-11T08:47:08.867Z,33.25
2023-02-11T08:49:35.474Z,35.25
2023-02-11T08:52:04.191Z,33.63
2023-02-11T08:54:31.070Z,34.80
2023-02-11T08:56:57.567Z,34.33
2023-02-11T08:59:24.108Z,34.45
2023-02-11T09:01:50.745Z,33.65
2023-02-11T09:04:17.255Z,35.65
2023-02-11T09:06:43.817Z,34.22
2023-02-11T09:09:11.206Z,32.15
2023-02-11T09:11:38.073Z,35.60
2023-02-11T09:14:04.594Z,36.80
2023-02-11T09:16:32.734Z,34.92
2023-02-11T09:19:00.169Z,36.05
2023-02-11T09:21:26.793Z,33.95
2023-02-11T09:23:53.699Z,35.78
2023-02-11T09:26:21.350Z,37.03
2023-02-11T09:28:48.423Z,36.35
2023-02-11T09:31:16.590Z,38.40
2023-02-11T09:33:47.837Z,35.67
2023-02-11T09:36:24.517Z,31.50
2023-02-11T09:38:51.166Z,33.63
2023-02-11T09:41:36.439Z,36.33
2023-02-11T09:44:05.099Z,33.95
2023-02-11T09:46:33.173Z,33.45
2023-02-11T09:49:00.093Z,33.08
2023-02-11T09:51:34.045Z,31.95
2023-02-11T09:54:05.556Z,33.58
2023-02-11T09:56:32.136Z,31.92
2023-02-11T09:58:58.558Z,31.52
2023-02-11T10:01:39.404Z,31.70
2023-02-11T14:45:40.579Z,25.05
2023-02-11T14:48:17.148Z,25.88
2023-02-11T14:50:46.591Z,30.35
2023-02-11T14:53:15.410Z,33.35
2023-02-11T14:55:42.783Z,25.75
2023-02-11T14:58:16.631Z,28.63
2023-02-11T15:00:49.227Z,26.42
2023-02-11T15:03:34.355Z,33.15
2023-02-11T15:06:00.793Z,30.27
2023-02-11T15:08:28.370Z,31.23
2023-02-11T15:10:55.486Z,34.13
2023-02-11T15:13:27.178Z,34.40
2023-02-11T15:15:55.693Z,29.25
2023-02-11T15:18:24.413Z,32.08
2023-02-11T15:20:52.231Z,31.15
2023-02-11T15:23:23.297Z,27.90
2023-02-11T15:25:55.878Z,27.52
2023-02-11T15:28:26.845Z,33.35
2023-02-11T15:30:57.701Z,35.42
2023-02-11T15:33:25.550Z,31.20
2023-02-11T15:35:52.320Z,29.70
2023-02-11T15:38:18.837Z,26.88
2023-02-11T15:40:56.060Z,27.95
2023-02-11T15:43:22.637Z,29.75
2023-02-11T15:45:51.879Z,31.48
2023-02-11T15:48:26.854Z,33.25
2023-02-11T15:50:54.976Z,30.40
2023-02-11T15:53:23.802Z,29.75
2023-02-11T15:55:51.361Z,35.33
2023-02-11T15:58:18.036Z,42.25
2023-02-11T16:00:49.812Z,50.22
2023-02-11T16:03:24.078Z,47.85
2023-02-11T16:05:50.845Z,36.67
2023-02-11T16:08:21.634Z,50.38
2023-02-11T16:11:03.264Z,43.42
2023-02-11T16:13:33.647Z,35.25
2023-02-11T16:16:05.144Z,33.90
2023-02-11T16:18:38.363Z,46.90
2023-02-11T16:21:06.765Z,43.13
2023-02-11T16:23:35.735Z,40.22
2023-02-11T16:26:05.792Z,33.47
2023-02-11T16:28:32.843Z,32.60
2023-02-11T16:31:02.393Z,30.90
2023-02-11T16:33:29.141Z,30.20
2023-02-11T16:35:55.669Z,31.55
2023-02-11T16:38:22.130Z,33.28
2023-02-11T16:40:51.864Z,31.80
2023-02-11T16:43:19.871Z,34.78
2023-02-11T16:45:46.792Z,36.95
2023-02-11T16:48:16.454Z,32.05
2023-02-11T16:50:44.816Z,31.85
2023-02-11T16:53:11.737Z,35.30
2023-02-11T16:55:38.858Z,33.58
2023-02-11T16:58:06.464Z,32.78
2023-02-11T17:00:32.995Z,27.95
2023-02-11T17:02:59.551Z,29.63
2023-02-11T17:05:26.411Z,30.85
2023-02-11T17:07:53.008Z,28.02
2023-02-11T17:10:21.839Z,30.85
2023-02-11T17:12:49.202Z,31.88
2023-02-11T17:15:15.732Z,33.97
2023-02-11T17:17:42.295Z,64.55
2023-02-11T17:20:11.176Z,39.20
2023-02-11T17:22:37.681Z,48.75
2023-02-11T17:25:04.249Z,62.53
2023-02-11T17:27:30.772Z,38.88
2023-02-11T17:29:57.254Z,33.53
2023-02-11T17:32:23.858Z,36.60
2023-02-11T17:34:52.399Z,41.65
2023-02-11T17:37:18.814Z,38.08
2023-02-11T17:39:45.371Z,38.15
2023-02-11T17:42:11.978Z,35.53
2023-02-11T17:44:38.478Z,38.92
2023-02-11T17:47:04.943Z,36.30
2023-02-11T17:49:31.393Z,45.35
2023-02-11T17:51:58.026Z,38.67
2023-02-11T17:54:25.065Z,39.70
2023-02-11T17:56:55.150Z,39.63
2023-02-11T17:59:23.593Z,45.63
2023-02-11T18:01:50.034Z,60.80
2023-02-11T18:04:18.499Z,48.58
2023-02-11T18:06:45.031Z,43.83
2023-02-11T18:09:12.085Z,43.35
2023-02-11T18:11:39.735Z,42.58
2023-02-11T18:14:07.810Z,40.85
2023-02-11T18:16:36.537Z,42.40
2023-02-11T18:19:03.260Z,40.95
2023-02-11T18:21:29.830Z,37.67
2023-02-11T18:23:57.068Z,46.50
2023-02-11T18:26:26.263Z,40.95
2023-02-11T18:28:52.773Z,43.00
2023-02-11T18:31:19.527Z,51.13
2023-02-11T18:33:46.197Z,40.53
2023-02-11T18:36:13.765Z,48.00
2023-02-11T18:38:40.451Z,55.58
2023-02-11T18:41:07.507Z,49.70
2023-02-11T18:43:34.615Z,53.38
2023-02-11T18:46:01.931Z,62.22
2023-02-11T18:48:28.555Z,65.60
2023-02-11T18:50:55.463Z,65.95
2023-02-11T18:53:22.488Z,63.55
2023-02-11T18:55:49.331Z,61.60
2023-02-11T18:58:15.923Z,69.97
2023-02-11T19:00:43.839Z,79.28
2023-02-11T19:03:10.531Z,96.95
2023-02-11T19:05:43.689Z,89.10
2023-02-11T19:08:10.621Z,99.68
2023-02-11T19:10:44.302Z,96.95
2023-02-11T19:13:10.835Z,100.80
2023-02-11T19:15:41.357Z,87.43
2023-02-11T19:18:07.866Z,98.28
2023-02-11T19:20:34.408Z,93.93
2023-02-11T19:23:00.996Z,96.22
2023-02-11T19:25:27.537Z,87.35
2023-02-11T19:27:54.035Z,88.53
2023-02-11T19:30:20.644Z,89.85
2023-02-11T19:32:52.457Z,90.72
2023-02-11T19:37:45.889Z,83.03
2023-02-11T19:40:13.115Z,88.63
2023-02-11T19:42:39.642Z,85.63
2023-02-11T19:45:07.416Z,90.32
2023-02-11T19:47:34.134Z,89.75
2023-02-11T19:50:00.729Z,82.53
2023-02-11T19:52:27.333Z,79.28
2023-02-11T19:54:53.756Z,88.20
2023-02-11T19:57:20.160Z,86.93
2023-02-11T19:59:46.570Z,89.88
2023-02-11T20:02:13.244Z,91.65
2023-02-11T20:04:39.778Z,93.95
2023-02-11T20:07:06.382Z,86.13
2023-02-11T20:09:33.065Z,93.63
2023-02-11T20:11:59.618Z,112.43
2023-02-11T20:14:27.939Z,183.07
2023-02-11T20:16:54.759Z,107.38
2023-02-11T20:19:22.307Z,103.38
2023-02-11T20:21:50.796Z,101.25
2023-02-11T20:24:17.704Z,92.10
2023-02-11T20:26:45.305Z,86.82
2023-02-11T20:29:12.251Z,92.75
2023-02-11T20:31:38.978Z,76.00
2023-02-11T20:34:05.508Z,88.80
2023-02-11T20:36:34.137Z,73.63
2023-02-11T20:39:00.652Z,94.00
2023-02-11T20:41:28.581Z,110.68
2023-02-11T20:43:55.438Z,97.03
2023-02-11T20:46:26.123Z,69.68
2023-02-11T20:48:53.116Z,66.57
2023-02-11T20:51:20.686Z,65.97
2023-02-11T20:53:51.452Z,64.65
2023-02-11T20:56:19.506Z,63.63
2023-02-11T20:58:46.337Z,65.28
2023-02-11T21:01:21.904Z,55.70
2023-02-11T21:03:52.555Z,57.53
2023-02-11T21:06:19.806Z,54.28
2023-02-11T21:08:46.400Z,51.83
2023-02-11T21:11:13.093Z,53.58
2023-02-11T21:13:40.540Z,52.00
2023-02-11T21:16:07.995Z,78.10
2023-02-11T21:18:34.924Z,96.30
2023-02-11T21:21:01.474Z,85.90
2023-02-11T21:23:29.155Z,72.57
2023-02-11T21:25:56.666Z,54.90
2023-02-11T21:28:26.487Z,56.00
2023-02-11T21:30:54.100Z,59.50
2023-02-11T21:33:20.897Z,52.03
2023-02-11T21:35:47.549Z,51.58
2023-02-11T21:38:14.285Z,50.90
2023-02-11T21:40:40.844Z,47.63
2023-02-11T21:43:07.429Z,51.00
2023-02-11T21:45:33.924Z,47.28
2023-02-11T21:48:00.443Z,48.00
2023-02-11T21:50:26.860Z,45.67
2023-02-11T21:52:53.261Z,49.10
2023-02-11T21:55:19.700Z,49.08
2023-02-11T21:57:46.171Z,44.33
2023-02-11T22:00:12.993Z,42.80
2023-02-11T22:02:39.473Z,43.40
2023-02-11T22:05:06.036Z,43.22
2023-02-11T22:07:34.667Z,42.90
2023-02-11T22:10:01.190Z,41.95
2023-02-11T22:12:27.641Z,41.03
2023-02-11T22:14:54.046Z,42.38
2023-02-11T22:17:20.538Z,39.00
2023-02-11T22:19:46.957Z,41.60
2023-02-11T22:22:18.128Z,43.17
2023-02-11T22:24:45.937Z,42.70
2023-02-11T22:27:13.253Z,40.30
2023-02-11T22:29:39.957Z,41.47
2023-02-11T22:32:06.740Z,42.22
2023-02-11T22:34:33.260Z,40.88
2023-02-11T22:37:01.071Z,38.17
2023-02-11T22:39:27.489Z,41.63
2023-02-11T22:41:56.441Z,39.33
2023-02-11T22:44:26.240Z,38.38
2023-02-11T22:46:53.074Z,39.30
2023-02-11T22:49:21.217Z,40.90
2023-02-11T22:51:48.233Z,45.50
2023-02-11T22:54:15.796Z,43.00
2023-02-11T22:56:42.217Z,41.05
2023-02-11T22:59:10.729Z,39.83
2023-02-11T23:01:37.509Z,38.42
2023-02-11T23:04:05.036Z,37.60
2023-02-11T23:06:31.795Z,39.58
2023-02-11T23:08:58.305Z,39.10
2023-02-11T23:11:25.950Z,37.17
2023-02-11T23:13:52.967Z,38.00
2023-02-11T23:16:24.097Z,37.20
2023-02-11T23:18:51.331Z,25.45
2023-02-11T23:21:21.224Z,37.53
2023-02-11T23:23:48.280Z,37.63
2023-02-11T23:26:16.064Z,37.83
2023-02-11T23:28:45.147Z,40.05
2023-02-11T23:31:15.488Z,39.55
2023-02-11T23:33:42.041Z,39.85
2023-02-11T23:36:08.739Z,40.08
2023-02-11T23:38:35.251Z,38.30
2023-02-11T23:41:01.676Z,39.45
2023-02-11T23:43:28.088Z,39.92
2023-02-11T23:45:54.834Z,42.28
2023-02-11T23:48:21.624Z,43.22
2023-02-11T23:50:48.229Z,37.65
2023-02-11T23:53:14.744Z,38.20
2023-02-11T23:55:42.140Z,38.20
2023-02-11T23:58:08.809Z,37.17
